Flight Track Log - Related Links

Times and Time Zones

All times are in EDT time to prevent confusion due to time zone crossing. See the UAL1138 flight status page for this flight to view local times or setup timezone preferences in your user account.


Time Position Orientation Groundspeed Altitude Reporting Facility
EDT Latitude Longitude Course Direction KTS MPH feet Rate Location/Type
Tue 12:11:57 PM 29.9531 -95.3397 265° West 173 199 900  Level Houston Center
Tue 12:13:06 PM 29.9489 -95.3906 265° West 239 275 3,000 1,884 Climbing Houston Center
Tue 12:13:23 PM 29.9686 -95.3958 347° North 253 291 3,600 1,065 Climbing Houston Center
Tue 12:14:08 PM 30.0214 -95.3700 23° Northeast 277 319 4,100 224 Climbing Houston Center
Tue 12:15:10 PM 30.0869 -95.3117 38° Northeast 291 335 4,000 96 Descending Houston Center
Tue 12:16:13 PM 30.1500 -95.2547 38° Northeast 290 334 4,300 1,632 Climbing Houston Center
Tue 12:17:15 PM 30.2142 -95.1967 38° Northeast 290 334 7,400 2,806 Climbing Houston Center
Tue 12:18:17 PM 30.2819 -95.1367 37° Northeast 301 346 10,100 2,419 Climbing Houston Center
Tue 12:19:19 PM 30.3717 -95.0558 38° Northeast 344 396 12,400 2,323 Climbing Houston Center
Tue 12:20:21 PM 30.4547 -94.9808 38° Northeast 365 420 14,900 2,274 Climbing Houston Center
Tue 12:21:23 PM 30.5397 -94.9047 38° Northeast 384 442 17,100 2,081 Climbing Houston Center
Tue 12:22:25 PM 30.6317 -94.8325 34° Northeast 393 452 19,200 1,968 Climbing Houston Center
Tue 12:23:28 PM 30.7267 -94.7594 33° Northeast 406 467 21,200 1,872 Climbing Houston Center
Tue 12:24:30 PM 30.8239 -94.6828 34° Northeast 420 483 23,100 1,790 Climbing Houston Center
Tue 12:25:32 PM 30.9428 -94.5914 33° Northeast 426 490 24,900 1,548 Climbing Houston Center
Tue 12:26:34 PM 31.0453 -94.5119 34° Northeast 440 506 26,300 1,355 Climbing Houston Center
Tue 12:27:36 PM 31.1481 -94.4325 33° Northeast 448 516 27,700 1,306 Climbing Houston Center
Tue 12:28:38 PM 31.2528 -94.3506 34° Northeast 454 522 29,000 1,210 Climbing Houston Center
Tue 12:29:40 PM 31.3592 -94.2669 34° Northeast 461 531 30,200 1,200 Climbing Houston Center
Tue 12:30:43 PM 31.4881 -94.1656 34° Northeast 465 535 31,500 1,248 Climbing Houston Center
Tue 12:31:45 PM 31.5958 -94.0797 34° Northeast 466 536 32,800 750 Climbing Houston Center
Tue 12:32:43 PM 31.7039 -93.9942 34° Northeast 466 536 33,000 100 Climbing Fort Worth Center
Tue 12:33:45 PM 31.8111 -93.9061 35° Northeast 467 537 33,000 480 Level Fort Worth Center
Tue 12:34:48 PM 31.9131 -93.8136 38° Northeast 467 537 34,000 1,056 Climbing Fort Worth Center
Tue 12:35:50 PM 32.0144 -93.7158 39° Northeast 467 537 35,200 1,113 Climbing Fort Worth Center
Tue 12:36:52 PM 32.0928 -93.5947 53° Northeast 465 535 36,300 871 Climbing Fort Worth Center
Tue 12:37:54 PM 32.1775 -93.4625 53° Northeast 462 532 37,000 339 Climbing Fort Worth Center
Tue 12:38:56 PM 32.2542 -93.3411 53° Northeast 461 531 37,000  Level Fort Worth Center
Tue 12:39:58 PM 32.3308 -93.2214 53° Northeast 462 532 37,000  Level Fort Worth Center
Tue 12:41:01 PM 32.4231 -93.0761 53° Northeast 461 531 37,000  Level Fort Worth Center
Tue 12:42:03 PM 32.5003 -92.9561 53° Northeast 461 531 37,000  Level Fort Worth Center
Tue 12:43:05 PM 32.5758 -92.8336 54° Northeast 461 531 37,000  Level Fort Worth Center
Tue 12:44:07 PM 32.6531 -92.7131 53° Northeast 461 531 37,000  Level Fort Worth Center
Tue 12:45:09 PM 32.7297 -92.5903 53° Northeast 462 532 37,000  Level Fort Worth Center
Tue 12:46:11 PM 32.8214 -92.4444 53° Northeast 462 532 37,000  Level Fort Worth Center
Tue 12:47:14 PM 32.8969 -92.3208 54° Northeast 462 532 37,000  Level Fort Worth Center
Tue 12:48:16 PM 32.9728 -92.1972 54° Northeast 462 532 37,000  Level Fort Worth Center
Tue 12:49:06 PM 33.0342 -92.1000 53° Northeast 463 533 37,000  Level Memphis Center
Tue 12:50:08 PM 33.1208 -91.9586 54° Northeast 464 534 37,000  Level Memphis Center
Tue 12:51:10 PM 33.1967 -91.8342 54° Northeast 465 535 37,000  Level Memphis Center
Tue 12:52:12 PM 33.2742 -91.7089 53° Northeast 467 537 37,000  Level Memphis Center
Tue 12:53:14 PM 33.3508 -91.5836 54° Northeast 467 537 37,000  Level Memphis Center
Tue 12:54:16 PM 33.4269 -91.4583 54° Northeast 468 539 37,000  Level Memphis Center
Tue 12:55:19 PM 33.5183 -91.3069 54° Northeast 468 539 37,000  Level Memphis Center
Tue 12:56:21 PM 33.5953 -91.1806 54° Northeast 468 539 37,000  Level Memphis Center
Tue 12:57:23 PM 33.6711 -91.0531 54° Northeast 468 539 37,000  Level Memphis Center
Tue 12:58:25 PM 33.7469 -90.9267 54° Northeast 469 540 37,000  Level Memphis Center
Tue 12:59:28 PM 33.8358 -90.7794 54° Northeast 469 540 37,000  Level Memphis Center
Tue 01:00:29 PM 33.9125 -90.6514 54° Northeast 470 541 37,000  Level Memphis Center
Tue 01:01:31 PM 33.9872 -90.5222 55° Northeast 470 541 37,000  Level Memphis Center
Tue 01:02:33 PM 34.0636 -90.3944 54° Northeast 470 541 37,000  Level Memphis Center
Tue 01:03:36 PM 34.1403 -90.2650 54° Northeast 471 542 37,000  Level Memphis Center
Tue 01:04:38 PM 34.2314 -90.1075 55° Northeast 473 544 37,000  Level Memphis Center
Tue 01:05:40 PM 34.3083 -89.9756 55° Northeast 477 549 37,000  Level Memphis Center
Tue 01:06:42 PM 34.3842 -89.8436 55° Northeast 479 551 37,000  Level Memphis Center
Tue 01:07:44 PM 34.4594 -89.7111 55° Northeast 480 552 37,000  Level Memphis Center
Tue 01:08:46 PM 34.5361 -89.5789 55° Northeast 481 554 37,000  Level Memphis Center
Tue 01:09:48 PM 34.6256 -89.4211 55° Northeast 481 554 37,000  Level Memphis Center
Tue 01:10:50 PM 34.7008 -89.2914 55° Northeast 480 552 37,000  Level Memphis Center
Tue 01:11:52 PM 34.7761 -89.1608 55° Northeast 479 551 37,000  Level Memphis Center
Tue 01:12:54 PM 34.8506 -89.0297 55° Northeast 478 550 37,000  Level Memphis Center
Tue 01:13:57 PM 34.9258 -88.8986 55° Northeast 478 550 37,000  Level Memphis Center
Tue 01:14:59 PM 35.0161 -88.7381 55° Northeast 478 550 37,000  Level Memphis Center
Tue 01:16:01 PM 35.0908 -88.6044 56° Northeast 478 550 37,000  Level Memphis Center
Tue 01:17:03 PM 35.1611 -88.4794 55° Northeast 478 550 37,000  Level Memphis Center
Tue 01:18:05 PM 35.2353 -88.3456 56° Northeast 478 550 37,000  Level Memphis Center
Tue 01:19:07 PM 35.3258 -88.1833 56° Northeast 478 550 37,000  Level Memphis Center
Tue 01:20:09 PM 35.3994 -88.0506 56° Northeast 476 548 37,000  Level Memphis Center
Tue 01:21:11 PM 35.4689 -87.9253 56° Northeast 476 548 37,000  Level Memphis Center
Tue 01:22:13 PM 35.5558 -87.7672 56° Northeast 475 547 37,000  Level Memphis Center
Tue 01:23:14 PM 35.6289 -87.6317 56° Northeast 475 547 37,000  Level Memphis Center
Tue 01:24:16 PM 35.7033 -87.4967 56° Northeast 475 547 37,000  Level Memphis Center
Tue 01:25:18 PM 35.7767 -87.3611 56° Northeast 475 547 37,000  Level Memphis Center
Tue 01:26:20 PM 35.8492 -87.2239 57° Northeast 475 547 37,000  Level Memphis Center
Tue 01:27:22 PM 35.9217 -87.0889 56° Northeast 474 545 37,000  Level Memphis Center
Tue 01:28:24 PM 35.9942 -86.9519 57° Northeast 474 545 37,000  Level Memphis Center
Tue 01:29:26 PM 36.0775 -86.7931 57° Northeast 473 544 37,000  Level Memphis Center
Tue 01:30:28 PM 36.1439 -86.6539 59° Northeast 476 548 37,000  Level Memphis Center
Tue 01:31:30 PM 36.1931 -86.5053 68° East 475 547 37,000  Level Memphis Center
Tue 01:32:32 PM 36.2422 -86.3572 68° East 468 539 37,000  Level Memphis Center
Tue 01:33:34 PM 36.2908 -86.2067 68° East 468 539 37,000  Level Memphis Center
Tue 01:34:36 PM 36.3400 -86.0558 68° East 468 539 37,000  Level Memphis Center
Tue 01:35:38 PM 36.3969 -85.8786 68° East 468 539 37,000  Level Memphis Center
Tue 01:36:40 PM 36.4392 -85.7481 68° East 468 539 37,000  Level Memphis Center
Tue 01:37:42 PM 36.4958 -85.5656 69° East 468 539 37,000  Level Memphis Center
Tue 01:38:44 PM 36.5433 -85.4131 69° East 469 540 37,000  Level Memphis Center
Tue 01:39:42 PM 36.5822 -85.2878 69° East 470 541 37,000  Level Indianapolis Center
Tue 01:40:44 PM 36.6386 -85.1028 69° East 471 542 37,000  Level Indianapolis Center
Tue 01:41:46 PM 36.6867 -84.9494 69° East 471 542 37,000  Level Indianapolis Center
Tue 01:42:47 PM 36.7328 -84.7933 70° East 473 544 37,000  Level Indianapolis Center
Tue 01:43:49 PM 36.7800 -84.6378 69° East 474 545 37,000  Level Indianapolis Center
Tue 01:44:51 PM 36.8283 -84.4753 70° East 475 547 37,000  Level Indianapolis Center
Tue 01:45:53 PM 36.8764 -84.3183 69° East 479 551 37,000  Level Indianapolis Center
Tue 01:46:55 PM 36.9225 -84.1606 70° East 480 552 37,000  Level Indianapolis Center
Tue 01:47:56 PM 36.9694 -84.0019 70° East 482 555 37,000  Level Indianapolis Center
Tue 01:48:58 PM 37.0169 -83.8464 69° East 482 555 37,000  Level Indianapolis Center
Tue 01:50:00 PM 37.0697 -83.6619 70° East 482 555 37,000  Level Indianapolis Center
Tue 01:51:02 PM 37.1172 -83.5044 69° East 481 554 37,000  Level Indianapolis Center
Tue 01:52:04 PM 37.1631 -83.3467 70° East 481 554 37,000  Level Indianapolis Center
Tue 01:53:06 PM 37.2097 -83.1894 70° East 480 552 37,000  Level Indianapolis Center
Tue 01:54:07 PM 37.2556 -83.0294 70° East 480 552 37,000  Level Indianapolis Center
Tue 01:55:09 PM 37.3003 -82.8717 70° East 479 551 37,000  Level Indianapolis Center
Tue 01:56:11 PM 37.3442 -82.7144 71° East 478 550 37,000  Level Indianapolis Center
Tue 01:57:13 PM 37.3892 -82.5561 70° East 478 550 37,000  Level Indianapolis Center
Tue 01:58:15 PM 37.4411 -82.3700 71° East 478 550 37,000  Level Indianapolis Center
Tue 01:59:17 PM 37.4850 -82.2097 71° East 479 551 37,000  Level Indianapolis Center
Tue 02:00:19 PM 37.5297 -82.0481 71° East 482 555 37,000  Level Indianapolis Center
Tue 02:01:21 PM 37.5736 -81.8869 71° East 485 558 37,000  Level Indianapolis Center
Tue 02:02:23 PM 37.6183 -81.7244 71° East 485 558 37,000  Level Indianapolis Center
Tue 02:03:25 PM 37.6639 -81.5628 70° East 486 559 37,000  Level Indianapolis Center
Tue 02:04:26 PM 37.7056 -81.4019 72° East 486 559 37,000 -244 Level Indianapolis Center
Tue 02:05:28 PM 37.7564 -81.2078 72° East 486 559 36,500 -484 Descending Indianapolis Center
Tue 02:06:30 PM 37.7858 -81.0397 77° East 488 562 36,000 -242 Descending Indianapolis Center
Tue 02:07:32 PM 37.7961 -80.8664 86° East 496 571 36,000  Level Indianapolis Center
Tue 02:08:34 PM 37.8086 -80.6944 85° East 496 571 36,000  Level Indianapolis Center
Tue 02:09:32 PM 37.8208 -80.5206 85° East 495 570 36,000  Level Washington Center
Tue 02:10:32 PM 37.8317 -80.3489 85° East 494 568 36,000 -496 Level Washington Center
Tue 02:11:33 PM 37.8417 -80.1753 86° East 493 567 35,000 -314 Descending Washington Center
Tue 02:13:43 PM 37.8636 -79.7964 86° East 491 565 35,000  Level Indianapolis Center
Tue 02:14:44 PM 37.8736 -79.6236 86° East 491 565 35,000  Level Indianapolis Center
Tue 02:15:42 PM 37.8822 -79.4842 85° East 494 568 35,000  Level Washington Center
Tue 02:16:46 PM 37.8925 -79.2742 86° East 494 568 35,000  Level Washington Center
Tue 02:17:49 PM 37.9022 -79.0989 86° East 494 568 35,000  Level Washington Center
Tue 02:18:50 PM 37.9408 -78.9308 74° East 496 571 35,000  Level Washington Center
Tue 02:19:54 PM 38.0003 -78.7714 65° Northeast 498 573 35,000  Level Washington Center
Tue 02:20:55 PM 38.0575 -78.6117 65° Northeast 498 573 35,000  Level Washington Center
Tue 02:21:56 PM 38.1144 -78.4511 66° East 498 573 35,000  Level Washington Center
Tue 02:23:00 PM 38.1831 -78.2597 65° Northeast 497 572 35,000  Level Washington Center
Tue 02:24:00 PM 38.2392 -78.1008 66° East 497 572 35,000  Level Washington Center
Tue 02:25:04 PM 38.2947 -77.9406 66° East 497 572 35,000  Level Washington Center
Tue 02:26:04 PM 38.3500 -77.7825 66° East 496 571 35,000  Level Washington Center
Tue 02:27:08 PM 38.4056 -77.6214 66° East 496 571 35,000  Level Washington Center
Tue 02:28:09 PM 38.4728 -77.4308 66° East 496 571 35,000  Level Washington Center
Tue 02:29:13 PM 38.5392 -77.2797 61° Northeast 496 571 35,000  Level Washington Center
Tue 02:30:14 PM 38.6225 -77.1444 52° Northeast 492 566 35,000 -48 Level Washington Center
Tue 02:31:17 PM 38.7075 -77.0094 51° Northeast 491 565 34,900 -532 Descending Washington Center
Tue 02:32:18 PM 38.7911 -76.8744 52° Northeast 491 565 33,900 -1,008 Descending Washington Center
Tue 02:33:22 PM 38.8933 -76.7083 52° Northeast 491 565 32,800 -1,008 Descending Washington Center
Tue 02:34:23 PM 38.9794 -76.5714 51° Northeast 492 566 31,800 -934 Descending Washington Center
Tue 02:35:24 PM 39.0619 -76.4347 52° Northeast 491 565 30,900 -912 Descending Washington Center
Tue 02:36:28 PM 39.1439 -76.2964 53° Northeast 489 563 29,900 -1,355 Descending Washington Center
Tue 02:37:28 PM 39.2286 -76.1556 52° Northeast 488 562 28,100 -1,392 Descending Washington Center
Tue 02:38:33 PM 39.3192 -76.0306 47° Northeast 479 551 27,000 -524 Descending Washington Center
Tue 02:39:34 PM 39.4375 -75.8961 41° Northeast 472 543 27,000 -148 Level Washington Center
Tue 02:40:35 PM 39.5333 -75.7800 43° Northeast 472 543 26,700 -1,238 Descending Washington Center
Tue 02:41:40 PM 39.6278 -75.6672 43° Northeast 464 534 24,400 -2,208 Descending Washington Center
Tue 02:42:40 PM 39.7183 -75.5597 42° Northeast 442 509 22,100 -2,274 Descending Washington Center
Tue 02:43:44 PM 39.8078 -75.4539 42° Northeast 437 503 19,700 -2,208 Descending Washington Center
Tue 02:44:45 PM 39.8922 -75.3506 43° Northeast 419 482 17,500 -2,160 Descending Washington Center
Tue 02:45:49 PM 39.9747 -75.2489 43° Northeast 407 468 15,200 -2,371 Descending Washington Center
Tue 02:46:49 PM 40.0686 -75.1339 43° Northeast 385 443 12,600 -2,412 Descending Washington Center
Tue 02:47:31 PM 40.1333 -75.0667 38° Northeast 370 426 11,100 -1,529 Descending New York TRACON
Tue 02:48:31 PM 40.2000 -74.9833 44° Northeast 339 390 10,000 -1,150 Descending New York TRACON
Tue 02:49:31 PM 40.2500 -74.9000 52° Northeast 299 344 8,800 -1,000 Descending New York TRACON
Tue 02:50:31 PM 40.3167 -74.8333 37° Northeast 287 330 8,000 -950 Descending New York TRACON
Tue 02:51:31 PM 40.3667 -74.7500 52° Northeast 279 321 6,900 -1,000 Descending New York TRACON
Tue 02:52:31 PM 40.4167 -74.6833 45° Northeast 271 312 6,000 -450 Descending New York TRACON
Tue 02:53:31 PM 40.4833 -74.6500 21° North 273 314 6,000  Level New York TRACON
Tue 02:54:31 PM 40.5667 -74.6333 North 277 319 6,000  Level New York TRACON
Tue 02:55:31 PM 40.6333 -74.6167 11° North 261 300 6,000  Level New York TRACON
Tue 02:56:31 PM 40.7000 -74.6000 11° North 255 293 6,000 -100 Level New York TRACON
Tue 02:57:31 PM 40.7667 -74.5833 11° North 262 302 5,800 -500 Descending New York TRACON
Tue 02:58:31 PM 40.8500 -74.5500 17° North 261 300 5,000 -400 Descending New York TRACON
Tue 02:59:31 PM 40.9167 -74.5333 11° North 259 298 5,000  Level New York TRACON
Tue 03:00:31 PM 40.9667 -74.4667 45° Northeast 270 311 5,000  Level New York TRACON
Tue 03:01:31 PM 41.0000 -74.3833 62° Northeast 267 307 5,000  Level New York TRACON
Tue 03:02:31 PM 41.0000 -74.2833 90° East 269 310 5,000 -500 Level New York TRACON
Tue 03:03:31 PM 40.9500 -74.2167 135° Southeast 261 300 4,000 -500 Descending New York TRACON
Tue 03:04:31 PM 40.9167 -74.1500 123° Southeast 216 249 4,000 -450 Level New York TRACON
Tue 03:05:31 PM 40.8667 -74.1000 143° Southeast 199 229 3,100 -700 Descending New York TRACON
Tue 03:06:31 PM 40.8333 -74.0833 159° South 181 208 2,600 -650 Descending New York TRACON
Tue 03:07:31 PM 40.7833 -74.1167 207° Southwest 181 208 1,800 -842 Descending New York TRACON
Tue 03:08:25 PM 40.7333 -74.1333 194° South 156 180 1,000 -889 Descending New York TRACON

Login

Don't have an account? Register now (free) for customized features, flight alerts, and more!